createdAt,value
2023-02-27T00:00:42.991Z,91.53
2023-02-27T00:01:42.948Z,92.48
2023-02-27T00:02:43.045Z,91.96
2023-02-27T00:03:43.016Z,91.64
2023-02-27T00:04:42.949Z,91.74
2023-02-27T00:05:42.909Z,91.58
2023-02-27T00:06:42.937Z,92.31
2023-02-27T00:07:42.914Z,92.04
2023-02-27T00:08:42.928Z,92.25
2023-02-27T00:09:42.885Z,92.67
2023-02-27T00:10:42.888Z,92.25
2023-02-27T00:11:42.852Z,93.51
2023-02-27T00:12:42.892Z,94.25
2023-02-27T00:13:42.846Z,93.76
2023-02-27T00:14:42.843Z,95.34
2023-02-27T00:15:42.928Z,94.29
2023-02-27T00:16:42.836Z,94.18
2023-02-27T00:17:42.803Z,93.45
2023-02-27T00:18:42.811Z,93.55
2023-02-27T00:19:42.777Z,93.30
2023-02-27T00:20:42.785Z,93.41
2023-02-27T00:21:42.770Z,93.09
2023-02-27T00:22:42.781Z,92.99
2023-02-27T00:23:42.753Z,92.77
2023-02-27T00:24:42.746Z,93.09
2023-02-27T00:25:42.725Z,92.67
2023-02-27T00:26:42.723Z,92.04
2023-02-27T00:27:42.706Z,92.46
2023-02-27T00:28:42.711Z,92.77
2023-02-27T00:29:42.670Z,92.25
2023-02-27T00:30:42.749Z,92.19
2023-02-27T00:31:42.879Z,93.34
2023-02-27T00:32:42.659Z,93.13
2023-02-27T00:33:42.661Z,93.13
2023-02-27T00:34:42.661Z,93.03
2023-02-27T00:35:42.614Z,93.87
2023-02-27T00:36:42.646Z,94.29
2023-02-27T00:37:42.607Z,94.18
2023-02-27T00:38:42.602Z,93.87
2023-02-27T00:39:42.611Z,94.08
2023-02-27T00:40:42.595Z,94.40
2023-02-27T00:41:42.549Z,93.87
2023-02-27T00:42:42.570Z,94.50
2023-02-27T00:43:42.537Z,94.40
2023-02-27T00:44:42.544Z,94.60
2023-02-27T00:45:42.525Z,94.12
2023-02-27T00:46:42.567Z,94.34
2023-02-27T00:47:42.511Z,95.18
2023-02-27T00:48:42.506Z,95.03
2023-02-27T00:49:42.473Z,94.54
2023-02-27T00:50:42.493Z,93.80
2023-02-27T00:51:42.465Z,94.60
2023-02-27T00:52:42.464Z,94.18
2023-02-27T00:53:42.449Z,94.08
2023-02-27T00:54:42.441Z,94.18
2023-02-27T00:55:42.413Z,93.80
2023-02-27T00:56:42.428Z,94.12
2023-02-27T00:57:42.456Z,95.07
2023-02-27T00:58:42.410Z,94.71
2023-02-27T00:59:42.383Z,94.18
2023-02-27T01:00:42.430Z,94.40
2023-02-27T01:01:42.357Z,94.50
2023-02-27T01:02:42.449Z,94.54
2023-02-27T01:03:42.355Z,94.34
2023-02-27T01:04:42.351Z,94.76
2023-02-27T01:05:42.320Z,94.18
2023-02-27T01:06:42.333Z,94.12
2023-02-27T01:07:42.306Z,94.71
2023-02-27T01:08:42.317Z,94.86
2023-02-27T01:09:42.311Z,94.02
2023-02-27T01:10:42.297Z,94.06
2023-02-27T01:11:42.261Z,94.06
2023-02-27T01:12:42.279Z,94.90
2023-02-27T01:13:42.294Z,95.11
2023-02-27T01:14:42.293Z,94.59
2023-02-27T01:15:42.297Z,94.69
2023-02-27T01:16:42.342Z,95.32
2023-02-27T01:17:42.286Z,95.43
2023-02-27T01:18:42.216Z,95.53
2023-02-27T01:19:42.191Z,95.32
2023-02-27T01:20:42.200Z,94.86
2023-02-27T01:21:42.231Z,94.44
2023-02-27T01:22:42.193Z,94.38
2023-02-27T01:23:42.180Z,94.90
2023-02-27T01:24:42.160Z,94.27
2023-02-27T01:25:42.150Z,94.31
2023-02-27T01:26:42.121Z,95.26
2023-02-27T01:27:42.149Z,95.43
2023-02-27T01:28:42.140Z,95.37
2023-02-27T01:29:42.113Z,95.11
2023-02-27T01:30:42.088Z,95.11
2023-02-27T01:31:42.115Z,94.27
2023-02-27T01:32:42.125Z,93.60
2023-02-27T01:33:42.139Z,93.91
2023-02-27T01:34:42.047Z,93.49
2023-02-27T01:35:42.054Z,92.76
2023-02-27T01:36:42.082Z,93.28
2023-02-27T01:37:42.037Z,94.23
2023-02-27T01:38:41.996Z,93.64
2023-02-27T01:39:42.034Z,94.27
2023-02-27T01:40:41.984Z,95.43
2023-02-27T01:41:41.988Z,95.64
2023-02-27T01:42:41.979Z,95.75
2023-02-27T01:43:41.981Z,95.01
2023-02-27T01:44:41.937Z,95.22
2023-02-27T01:45:41.995Z,95.64
2023-02-27T01:46:41.917Z,96.06
2023-02-27T01:47:41.942Z,96.00
2023-02-27T01:48:41.903Z,96.42
2023-02-27T01:49:41.913Z,96.42
2023-02-27T01:50:41.881Z,96.31
2023-02-27T01:51:41.902Z,96.42
2023-02-27T01:52:41.873Z,96.31
2023-02-27T01:53:41.877Z,96.21
2023-02-27T01:54:41.868Z,96.42
2023-02-27T01:55:41.851Z,95.89
2023-02-27T01:56:41.817Z,96.04
2023-02-27T01:57:41.852Z,95.73
2023-02-27T01:58:41.802Z,95.62
2023-02-27T01:59:41.817Z,96.36
2023-02-27T02:00:41.780Z,96.47
2023-02-27T02:01:41.793Z,96.78
2023-02-27T02:02:41.772Z,96.99
2023-02-27T02:03:41.798Z,96.99
2023-02-27T02:04:41.739Z,96.99
2023-02-27T02:05:41.753Z,96.36
2023-02-27T02:06:41.728Z,96.09
2023-02-27T02:07:41.733Z,96.78
2023-02-27T02:08:41.707Z,97.09
2023-02-27T02:09:41.797Z,96.67
2023-02-27T02:10:41.682Z,96.95
2023-02-27T02:11:41.693Z,97.27
2023-02-27T02:12:41.674Z,97.16
2023-02-27T02:13:41.706Z,96.42
2023-02-27T02:14:41.641Z,96.95
2023-02-27T02:15:41.671Z,97.05
2023-02-27T02:16:41.663Z,97.31
2023-02-27T02:17:41.634Z,97.09
2023-02-27T02:18:41.613Z,97.20
2023-02-27T02:19:41.629Z,97.41
2023-02-27T02:20:41.604Z,96.99
2023-02-27T02:21:41.616Z,97.14
2023-02-27T02:22:41.582Z,97.73
2023-02-27T02:23:41.581Z,97.56
2023-02-27T02:24:41.541Z,97.20
2023-02-27T02:25:41.589Z,96.89
2023-02-27T02:26:41.523Z,96.25
2023-02-27T02:27:41.565Z,96.31
2023-02-27T02:28:41.502Z,96.42
2023-02-27T02:29:41.528Z,96.53
2023-02-27T02:30:41.613Z,97.16
2023-02-27T02:31:41.601Z,97.37
2023-02-27T02:32:41.470Z,97.47
2023-02-27T02:33:41.504Z,97.69
2023-02-27T02:34:41.447Z,97.79
2023-02-27T02:35:41.458Z,97.79
2023-02-27T02:36:41.443Z,97.94
2023-02-27T02:37:41.441Z,97.89
2023-02-27T02:38:41.407Z,97.79
2023-02-27T02:39:41.443Z,97.16
2023-02-27T02:40:41.385Z,96.84
2023-02-27T02:41:41.402Z,96.53
2023-02-27T02:42:41.364Z,96.63
2023-02-27T02:43:41.378Z,96.21
2023-02-27T02:44:41.355Z,96.04
2023-02-27T02:45:41.413Z,96.89
2023-02-27T02:46:41.328Z,96.99
2023-02-27T02:47:41.361Z,96.78
2023-02-27T02:48:41.330Z,96.25
2023-02-27T02:49:41.327Z,96.78
2023-02-27T02:50:41.290Z,96.15
2023-02-27T02:51:41.319Z,96.53
2023-02-27T02:52:41.271Z,96.36
2023-02-27T02:53:41.299Z,96.89
2023-02-27T02:54:41.284Z,96.47
2023-02-27T02:55:41.275Z,95.62
2023-02-27T02:56:41.235Z,95.73
2023-02-27T02:57:41.268Z,95.94
2023-02-27T02:58:41.215Z,95.83
2023-02-27T02:59:41.236Z,95.62
2023-02-27T03:00:41.195Z,96.15
2023-02-27T03:01:41.249Z,97.31
2023-02-27T03:02:41.177Z,97.16
2023-02-27T03:03:41.211Z,97.69
2023-02-27T03:04:41.220Z,97.58
2023-02-27T03:05:41.198Z,96.95
2023-02-27T03:06:41.142Z,97.16
2023-02-27T03:07:41.221Z,97.20
2023-02-27T03:08:41.121Z,96.47
2023-02-27T03:09:41.169Z,96.25
2023-02-27T03:10:41.097Z,97.63
2023-02-27T03:11:41.120Z,96.47
2023-02-27T03:12:41.146Z,96.78
2023-02-27T03:13:41.089Z,96.47
2023-02-27T03:14:41.058Z,96.47
2023-02-27T03:15:41.258Z,96.15
2023-02-27T03:16:41.135Z,95.98
2023-02-27T03:17:41.064Z,96.30
2023-02-27T03:18:41.027Z,96.36
2023-02-27T03:19:41.032Z,96.30
2023-02-27T03:20:41.018Z,95.67
2023-02-27T03:21:41.044Z,96.19
2023-02-27T03:22:41.013Z,96.41
2023-02-27T03:23:40.991Z,96.93
2023-02-27T03:24:40.962Z,96.93
2023-02-27T03:25:40.985Z,96.47
2023-02-27T03:26:40.935Z,96.30
2023-02-27T03:27:40.973Z,96.36
2023-02-27T03:28:40.912Z,96.57
2023-02-27T03:29:40.937Z,96.78
2023-02-27T03:30:40.977Z,96.51
2023-02-27T03:31:41.029Z,96.61
2023-02-27T03:32:40.906Z,96.89
2023-02-27T03:33:40.917Z,96.89
2023-02-27T03:34:40.855Z,96.78
2023-02-27T03:35:40.877Z,97.03
2023-02-27T03:36:40.833Z,97.14
2023-02-27T03:37:40.855Z,96.61
2023-02-27T03:38:40.825Z,96.61
2023-02-27T03:39:40.844Z,96.61
2023-02-27T03:40:40.804Z,97.67
2023-02-27T03:41:40.835Z,97.88
2023-02-27T03:42:40.777Z,97.77
2023-02-27T03:43:40.787Z,97.67
2023-02-27T03:44:40.768Z,97.56
2023-02-27T03:45:40.896Z,97.56
2023-02-27T03:46:40.763Z,97.20
2023-02-27T03:47:41.568Z,97.20
2023-02-27T03:48:40.722Z,97.41
2023-02-27T03:49:40.736Z,97.31
2023-02-27T03:50:40.708Z,96.99
2023-02-27T03:51:40.738Z,96.67
2023-02-27T03:52:40.690Z,96.89
2023-02-27T03:53:40.707Z,96.99
2023-02-27T03:54:40.661Z,97.20
2023-02-27T03:55:40.686Z,97.52
2023-02-27T03:56:40.647Z,97.35
2023-02-27T03:57:40.676Z,97.88
2023-02-27T03:58:40.851Z,97.45
2023-02-27T03:59:40.641Z,97.08
2023-02-27T04:00:40.607Z,98.03
2023-02-27T04:01:40.668Z,97.71
2023-02-27T04:02:40.618Z,97.56
2023-02-27T04:03:40.619Z,97.39
2023-02-27T04:04:40.592Z,97.19
2023-02-27T04:05:40.599Z,96.97
2023-02-27T04:06:40.544Z,96.72
2023-02-27T04:07:40.567Z,96.61
2023-02-27T04:08:40.525Z,97.25
2023-02-27T04:09:40.644Z,97.35
2023-02-27T04:10:40.516Z,96.93
2023-02-27T04:11:40.553Z,96.61
2023-02-27T04:12:40.508Z,96.41
2023-02-27T04:13:40.518Z,96.09
2023-02-27T04:14:40.477Z,96.13
2023-02-27T04:15:40.731Z,96.45
2023-02-27T04:16:40.447Z,96.77
2023-02-27T04:17:40.478Z,96.87
2023-02-27T04:18:40.446Z,96.97
2023-02-27T04:19:40.445Z,96.61
2023-02-27T04:20:40.420Z,96.41
2023-02-27T04:21:40.446Z,96.09
2023-02-27T04:22:40.463Z,96.41
2023-02-27T04:23:40.389Z,96.83
2023-02-27T04:24:40.443Z,96.45
2023-02-27T04:25:40.394Z,96.23
2023-02-27T04:26:40.378Z,94.90
2023-02-27T04:27:40.361Z,97.13
2023-02-27T04:28:40.355Z,97.13
2023-02-27T04:29:40.327Z,96.59
2023-02-27T04:30:40.340Z,96.70
2023-02-27T04:31:40.413Z,97.13
2023-02-27T04:32:40.452Z,97.75
2023-02-27T04:33:40.304Z,97.55
2023-02-27T04:34:40.312Z,98.18
2023-02-27T04:35:40.270Z,97.75
2023-02-27T04:36:40.285Z,98.07
2023-02-27T04:37:40.259Z,98.60
2023-02-27T04:38:40.273Z,98.81
2023-02-27T04:39:40.259Z,98.81
2023-02-27T04:40:40.246Z,98.81
2023-02-27T04:41:40.241Z,98.81
2023-02-27T04:42:40.239Z,99.02
2023-02-27T04:43:40.201Z,98.92
2023-02-27T04:44:40.238Z,98.39
2023-02-27T04:45:40.271Z,98.49
2023-02-27T04:46:40.195Z,98.81
2023-02-27T04:47:40.179Z,99.76
2023-02-27T04:48:40.188Z,99.98
2023-02-27T04:49:40.155Z,99.87
2023-02-27T04:50:40.166Z,99.76
2023-02-27T04:51:40.141Z,99.66
2023-02-27T04:52:40.140Z,99.34
2023-02-27T04:53:40.108Z,99.13
2023-02-27T04:54:40.118Z,99.02
2023-02-27T04:55:40.090Z,99.13
2023-02-27T04:56:40.099Z,99.24
2023-02-27T04:57:40.088Z,99.13
2023-02-27T04:58:40.078Z,98.81
2023-02-27T04:59:40.053Z,98.71
2023-02-27T05:00:40.057Z,98.81
2023-02-27T05:01:40.044Z,99.02
2023-02-27T05:02:40.206Z,98.49
2023-02-27T05:03:40.035Z,98.49
2023-02-27T05:04:40.039Z,98.92
2023-02-27T05:05:40.022Z,99.34
2023-02-27T05:06:40.033Z,99.02
2023-02-27T05:07:39.962Z,98.39
2023-02-27T05:08:40.008Z,98.12
2023-02-27T05:09:39.961Z,98.01
2023-02-27T05:10:39.986Z,98.54
2023-02-27T05:11:39.945Z,98.39
2023-02-27T05:12:39.947Z,98.28
2023-02-27T05:13:39.909Z,98.39
2023-02-27T05:14:39.931Z,98.07
2023-02-27T05:15:39.966Z,97.55
2023-02-27T05:16:39.950Z,96.91
2023-02-27T05:17:39.931Z,97.02
2023-02-27T05:18:39.892Z,97.44
2023-02-27T05:19:39.858Z,97.75
2023-02-27T05:20:39.888Z,97.44
2023-02-27T05:21:39.863Z,97.44
2023-02-27T05:22:39.853Z,97.55
2023-02-27T05:23:39.817Z,97.13
2023-02-27T05:24:39.837Z,97.38
2023-02-27T05:25:39.793Z,97.49
2023-02-27T05:26:39.814Z,97.49
2023-02-27T05:27:39.817Z,97.65
2023-02-27T05:28:39.792Z,96.59
2023-02-27T05:29:39.755Z,96.70
2023-02-27T05:30:39.772Z,97.02
2023-02-27T05:31:39.770Z,97.44
2023-02-27T05:32:39.861Z,97.75
2023-02-27T05:33:39.758Z,97.23
2023-02-27T05:34:39.732Z,97.33
2023-02-27T05:35:39.741Z,97.33
2023-02-27T05:36:39.715Z,97.59
2023-02-27T05:37:39.688Z,97.27
2023-02-27T05:38:39.705Z,97.80
2023-02-27T05:39:39.693Z,98.43
2023-02-27T05:40:39.656Z,98.48
2023-02-27T05:41:39.663Z,98.69
2023-02-27T05:42:39.631Z,98.90
2023-02-27T05:43:39.662Z,98.80
2023-02-27T05:44:39.629Z,98.69
2023-02-27T05:45:39.675Z,98.58
2023-02-27T05:46:39.599Z,98.69
2023-02-27T05:47:39.616Z,98.48
2023-02-27T05:48:39.578Z,98.37
2023-02-27T05:49:39.585Z,98.69
2023-02-27T05:50:39.552Z,98.27
2023-02-27T05:51:39.587Z,97.42
2023-02-27T05:52:39.531Z,97.15
2023-02-27T05:53:39.545Z,95.98
2023-02-27T05:54:39.512Z,97.57
2023-02-27T05:55:39.542Z,98.94
2023-02-27T05:56:39.492Z,99.22
2023-02-27T05:57:39.541Z,98.90
2023-02-27T05:58:39.492Z,99.11
2023-02-27T05:59:39.497Z,99.16
2023-02-27T06:00:39.456Z,99.16
2023-02-27T06:01:39.481Z,98.94
2023-02-27T06:02:39.437Z,99.22
2023-02-27T06:03:39.647Z,99.37
2023-02-27T06:04:39.424Z,99.54
2023-02-27T06:05:39.436Z,99.96
2023-02-27T06:06:39.405Z,99.37
2023-02-27T06:07:39.414Z,99.48
2023-02-27T06:08:39.380Z,99.64
2023-02-27T06:09:39.446Z,99.22
2023-02-27T06:10:39.370Z,99.11
2023-02-27T06:11:39.379Z,99.22
2023-02-27T06:12:39.346Z,98.48
2023-02-27T06:13:41.845Z,98.80
2023-02-27T06:14:39.337Z,99.01
2023-02-27T06:15:39.370Z,99.11
2023-02-27T06:16:39.414Z,99.22
2023-02-27T06:17:39.330Z,99.22
2023-02-27T06:18:39.303Z,99.16
2023-02-27T06:19:39.304Z,99.01
2023-02-27T06:20:39.268Z,99.22
2023-02-27T06:21:39.321Z,99.11
2023-02-27T06:22:39.250Z,99.01
2023-02-27T06:23:39.265Z,98.80
2023-02-27T06:24:39.230Z,98.69
2023-02-27T06:25:39.244Z,98.58
2023-02-27T06:26:39.212Z,98.12
2023-02-27T06:27:39.268Z,98.22
2023-02-27T06:28:39.196Z,98.54
2023-02-27T06:29:39.211Z,98.65
2023-02-27T06:30:39.205Z,98.54
2023-02-27T06:31:39.188Z,98.54
2023-02-27T06:32:39.162Z,97.91
2023-02-27T06:33:39.198Z,97.38
2023-02-27T06:34:39.134Z,97.49
2023-02-27T06:35:39.165Z,97.91
2023-02-27T06:36:39.137Z,97.80
2023-02-27T06:37:39.124Z,98.22
2023-02-27T06:38:39.115Z,97.74
2023-02-27T06:39:39.122Z,97.95
2023-02-27T06:40:39.085Z,98.22
2023-02-27T06:41:39.089Z,97.63
2023-02-27T06:42:39.061Z,97.74
2023-02-27T06:43:39.067Z,98.54
2023-02-27T06:44:39.042Z,99.07
2023-02-27T06:45:39.085Z,99.18
2023-02-27T06:46:39.113Z,99.07
2023-02-27T06:47:39.034Z,98.86
2023-02-27T06:48:39.002Z,98.75
2023-02-27T06:49:39.020Z,99.07
2023-02-27T06:50:38.980Z,98.33
2023-02-27T06:51:39.032Z,98.22
2023-02-27T06:52:38.983Z,98.18
2023-02-27T06:53:38.980Z,97.86
2023-02-27T06:54:38.945Z,97.55
2023-02-27T06:55:38.951Z,97.97
2023-02-27T06:56:38.924Z,97.55
2023-02-27T06:57:38.971Z,97.50
2023-02-27T06:58:38.901Z,97.23
2023-02-27T06:59:38.917Z,97.44
2023-02-27T07:00:38.901Z,98.07
2023-02-27T07:01:38.961Z,98.66
2023-02-27T07:02:38.860Z,98.98
2023-02-27T07:03:38.894Z,98.61
2023-02-27T07:04:38.885Z,98.11
2023-02-27T07:05:38.868Z,97.53
2023-02-27T07:07:36.317Z,96.75
2023-02-27T07:07:41.745Z,94.54
2023-02-27T07:08:38.807Z,92.44
2023-02-27T07:09:38.843Z,93.18
2023-02-27T07:10:38.802Z,93.49
2023-02-27T07:11:38.800Z,93.07
2023-02-27T07:12:38.766Z,92.44
2023-02-27T07:13:38.787Z,92.50
2023-02-27T07:14:38.756Z,93.24
2023-02-27T07:15:38.811Z,92.88
2023-02-27T07:16:38.728Z,90.46
2023-02-27T07:17:38.754Z,90.78
2023-02-27T07:18:38.807Z,89.41
2023-02-27T07:19:38.727Z,90.56
2023-02-27T07:20:38.688Z,91.36
2023-02-27T07:21:38.734Z,89.86
2023-02-27T07:22:38.672Z,90.38
2023-02-27T07:23:38.688Z,89.01
2023-02-27T07:24:38.649Z,88.28
2023-02-27T07:25:38.670Z,89.12
2023-02-27T07:26:38.631Z,90.12
2023-02-27T07:27:38.757Z,89.60
2023-02-27T07:28:38.683Z,90.34
2023-02-27T07:29:38.633Z,90.19
2023-02-27T07:30:38.595Z,88.51
2023-02-27T07:31:38.755Z,87.95
2023-02-27T07:32:38.571Z,88.16
2023-02-27T07:33:38.602Z,88.92
2023-02-27T07:34:38.552Z,87.26
2023-02-27T07:35:38.679Z,84.81
2023-02-27T07:36:38.531Z,83.27
2023-02-27T07:37:38.563Z,81.73
2023-02-27T07:38:38.518Z,80.65
2023-02-27T07:39:38.553Z,79.05
2023-02-27T07:40:38.496Z,77.20
2023-02-27T07:41:38.523Z,74.66
2023-02-27T07:42:38.478Z,76.02
2023-02-27T07:43:38.491Z,75.67
2023-02-27T07:44:38.458Z,74.84
2023-02-27T07:45:38.495Z,75.46
2023-02-27T07:46:38.530Z,73.55
2023-02-27T07:47:38.488Z,73.80
2023-02-27T07:48:38.420Z,72.79
2023-02-27T07:49:38.431Z,73.52
2023-02-27T07:50:38.406Z,72.58
2023-02-27T07:51:38.557Z,72.30
2023-02-27T07:52:38.393Z,73.66
2023-02-27T07:53:38.395Z,73.59
2023-02-27T07:54:38.367Z,76.33
2023-02-27T07:55:38.370Z,75.12
2023-02-27T07:56:38.356Z,77.31
2023-02-27T07:57:38.368Z,75.88
2023-02-27T07:58:38.319Z,76.37
2023-02-27T07:59:38.333Z,77.83
2023-02-27T08:00:38.309Z,80.02
2023-02-27T08:01:38.310Z,80.02
2023-02-27T08:02:38.365Z,79.78
2023-02-27T08:03:38.319Z,80.20
2023-02-27T08:04:38.323Z,78.32
2023-02-27T08:05:38.272Z,78.07
2023-02-27T08:06:38.256Z,78.11
2023-02-27T08:07:38.250Z,75.46
2023-02-27T08:08:38.232Z,74.32
2023-02-27T08:09:38.285Z,75.50
2023-02-27T08:10:38.203Z,74.70
2023-02-27T08:11:38.227Z,75.71
2023-02-27T08:12:38.180Z,78.88
2023-02-27T08:14:38.167Z,80.69
2023-02-27T08:15:38.197Z,79.36
2023-02-27T08:16:38.219Z,81.29
2023-02-27T08:17:38.161Z,83.48
2023-02-27T08:18:38.133Z,84.42
2023-02-27T08:19:38.136Z,83.86
2023-02-27T08:20:38.110Z,81.32
2023-02-27T08:21:38.135Z,79.68
2023-02-27T08:22:38.081Z,78.28
2023-02-27T08:23:38.096Z,78.83
2023-02-27T08:24:38.058Z,77.76
2023-02-27T08:25:38.083Z,76.40
2023-02-27T08:26:38.037Z,76.72
2023-02-27T08:27:38.076Z,76.96
2023-02-27T08:28:38.015Z,77.27
2023-02-27T08:29:38.062Z,77.17
2023-02-27T08:30:38.008Z,77.80
2023-02-27T08:31:38.116Z,76.65
2023-02-27T08:32:37.974Z,76.26
2023-02-27T08:33:38.016Z,78.49
2023-02-27T08:34:37.974Z,80.20
2023-02-27T08:35:38.097Z,80.30
2023-02-27T08:36:37.960Z,80.86
2023-02-27T08:37:37.960Z,81.90
2023-02-27T08:38:37.916Z,81.80
2023-02-27T08:39:37.961Z,82.26
2023-02-27T08:40:37.890Z,82.57
2023-02-27T08:41:38.060Z,81.52
2023-02-27T08:42:37.870Z,81.63
2023-02-27T08:43:37.885Z,81.77
2023-02-27T08:44:37.877Z,82.29
2023-02-27T08:45:37.927Z,84.28
2023-02-27T08:46:37.838Z,84.03
2023-02-27T08:47:37.849Z,82.89
2023-02-27T08:48:37.809Z,82.89
2023-02-27T08:49:37.823Z,82.05
2023-02-27T08:50:37.798Z,82.78
2023-02-27T08:51:37.820Z,82.36
2023-02-27T08:52:37.770Z,82.57
2023-02-27T08:53:37.983Z,82.46
2023-02-27T08:54:37.781Z,83.09
2023-02-27T08:55:37.765Z,83.72
2023-02-27T08:56:37.735Z,83.30
2023-02-27T08:57:37.757Z,83.58
2023-02-27T08:58:37.707Z,83.06
2023-02-27T08:59:37.728Z,83.54
2023-02-27T09:00:37.688Z,80.85
2023-02-27T09:01:37.704Z,79.32
2023-02-27T09:02:37.744Z,77.17
2023-02-27T09:03:37.700Z,74.53
2023-02-27T09:04:37.657Z,76.16
2023-02-27T09:05:37.660Z,74.43
2023-02-27T09:06:37.634Z,73.11
2023-02-27T09:07:37.641Z,70.69
2023-02-27T09:08:37.619Z,69.31
2023-02-27T09:09:37.659Z,68.13
2023-02-27T09:10:37.604Z,67.58
2023-02-27T09:11:38.834Z,66.72
2023-02-27T09:12:37.619Z,64.97
2023-02-27T09:13:37.582Z,66.14
2023-02-27T09:14:37.549Z,68.86
2023-02-27T09:15:37.581Z,69.83
2023-02-27T09:16:37.564Z,69.52
2023-02-27T09:17:37.544Z,70.10
2023-02-27T09:18:37.509Z,69.76
2023-02-27T09:19:37.517Z,67.86
2023-02-27T09:20:37.538Z,65.38
2023-02-27T09:21:37.572Z,66.66
2023-02-27T09:22:37.479Z,64.80
2023-02-27T09:23:37.478Z,66.46
2023-02-27T09:24:37.449Z,65.63
2023-02-27T09:25:37.458Z,67.25
2023-02-27T09:26:45.199Z,65.70
2023-02-27T09:27:37.471Z,65.01
2023-02-27T09:28:37.410Z,65.04
2023-02-27T09:29:37.415Z,64.58
2023-02-27T09:30:37.390Z,67.76
2023-02-27T09:31:37.418Z,68.82
2023-02-27T09:32:37.415Z,69.06
2023-02-27T09:33:37.414Z,71.41
2023-02-27T09:34:37.339Z,74.77
2023-02-27T09:35:37.381Z,75.40
2023-02-27T09:36:37.354Z,74.15
2023-02-27T09:37:37.336Z,73.28
2023-02-27T09:38:37.301Z,75.67
2023-02-27T09:39:39.064Z,73.77
2023-02-27T09:40:37.280Z,72.69
2023-02-27T09:41:37.291Z,72.22
2023-02-27T09:42:37.265Z,70.90
2023-02-27T09:43:37.273Z,67.55
2023-02-27T09:44:46.088Z,68.28
2023-02-27T09:45:37.282Z,68.90
2023-02-27T09:46:37.216Z,70.25
2023-02-27T09:47:37.259Z,69.76
2023-02-27T09:48:37.196Z,69.79
2023-02-27T09:49:37.207Z,69.31
2023-02-27T09:50:37.175Z,70.07
2023-02-27T09:51:37.204Z,70.17
2023-02-27T09:52:37.165Z,70.38
2023-02-27T09:53:37.171Z,69.76
2023-02-27T09:54:37.132Z,71.73
2023-02-27T09:55:37.155Z,70.51
2023-02-27T09:56:37.140Z,70.72
2023-02-27T09:57:37.116Z,70.62
2023-02-27T09:58:37.117Z,70.72
2023-02-27T09:59:37.088Z,72.90
2023-02-27T10:00:37.104Z,72.42
2023-02-27T10:01:37.064Z,72.90
2023-02-27T10:02:37.110Z,73.49
2023-02-27T10:03:37.125Z,72.53
2023-02-27T10:04:37.052Z,69.76
2023-02-27T10:05:37.016Z,68.52
2023-02-27T10:06:37.036Z,67.90
2023-02-27T10:07:36.999Z,69.07
2023-02-27T10:08:37.012Z,69.38
2023-02-27T10:09:37.014Z,68.93
2023-02-27T10:10:36.989Z,67.58
2023-02-27T10:11:36.957Z,67.79
2023-02-27T10:12:36.976Z,68.62
2023-02-27T10:13:36.961Z,68.62
2023-02-27T10:14:36.961Z,68.62
2023-02-27T10:15:36.953Z,69.14
2023-02-27T10:16:36.996Z,68.31
2023-02-27T10:17:36.899Z,68.77
2023-02-27T10:18:36.918Z,66.53
2023-02-27T10:19:36.906Z,65.02
2023-02-27T10:20:36.896Z,65.72
2023-02-27T10:21:36.877Z,64.14
2023-02-27T10:22:36.877Z,62.25
2023-02-27T10:23:36.835Z,62.35
2023-02-27T10:24:36.851Z,62.35
2023-02-27T10:25:36.814Z,61.08
2023-02-27T10:26:36.836Z,61.57
2023-02-27T10:27:39.565Z,61.24
2023-02-27T10:28:36.809Z,61.96
2023-02-27T10:29:36.780Z,58.92
2023-02-27T10:30:36.949Z,60.26
2023-02-27T10:31:36.840Z,59.64
2023-02-27T10:32:36.774Z,60.47
2023-02-27T10:33:36.752Z,59.56
2023-02-27T10:34:36.752Z,59.46
2023-02-27T10:35:36.741Z,61.66
2023-02-27T10:36:36.793Z,61.45
2023-02-27T10:37:36.703Z,61.52
2023-02-27T10:38:36.709Z,59.12
2023-02-27T10:39:36.688Z,59.95
2023-02-27T10:40:36.697Z,59.95
2023-02-27T10:41:36.731Z,61.11
2023-02-27T10:42:36.670Z,60.80
2023-02-27T10:43:36.640Z,60.52
2023-02-27T10:44:36.642Z,61.04
2023-02-27T10:45:38.847Z,59.95
2023-02-27T10:46:36.717Z,61.83
2023-02-27T10:47:36.589Z,61.94
2023-02-27T10:48:36.600Z,60.57
2023-02-27T10:49:36.573Z,60.02
2023-02-27T10:50:36.588Z,59.39
2023-02-27T10:51:36.580Z,61.07
2023-02-27T10:52:36.559Z,62.97
2023-02-27T10:53:36.526Z,62.47
2023-02-27T10:54:36.538Z,60.05
2023-02-27T10:55:36.506Z,60.08
2023-02-27T10:56:36.516Z,60.63
2023-02-27T10:57:36.493Z,61.51
2023-02-27T10:58:36.489Z,64.53
2023-02-27T10:59:36.463Z,62.29
2023-02-27T11:00:36.472Z,64.80
2023-02-27T11:01:36.498Z,64.28
2023-02-27T11:02:36.451Z,64.42
2023-02-27T11:03:36.432Z,65.25
2023-02-27T11:04:36.496Z,62.49
2023-02-27T11:05:36.404Z,61.87
2023-02-27T11:06:36.416Z,64.80
2023-02-27T11:07:36.398Z,64.39
2023-02-27T11:08:36.400Z,63.60
2023-02-27T11:09:36.381Z,63.22
2023-02-27T11:10:36.365Z,63.64
2023-02-27T11:11:36.335Z,61.76
2023-02-27T11:12:36.348Z,57.37
2023-02-27T11:13:36.333Z,59.49
2023-02-27T11:14:36.328Z,60.16
2023-02-27T11:15:36.437Z,60.24
2023-02-27T11:16:36.303Z,60.00
2023-02-27T11:17:36.267Z,59.00
2023-02-27T11:18:36.295Z,61.63
2023-02-27T11:19:36.250Z,59.38
2023-02-27T11:20:36.275Z,58.30
2023-02-27T11:21:36.273Z,56.46
2023-02-27T11:22:36.238Z,57.68
2023-02-27T11:23:36.212Z,57.91
2023-02-27T11:24:36.226Z,58.22
2023-02-27T11:25:36.191Z,58.79
2023-02-27T11:26:36.206Z,59.25
2023-02-27T11:27:36.193Z,56.38
2023-02-27T11:28:36.180Z,56.46
2023-02-27T11:29:36.152Z,53.71
2023-02-27T11:30:36.165Z,56.98
2023-02-27T11:31:36.152Z,56.41
2023-02-27T11:32:36.145Z,55.95
2023-02-27T11:33:36.129Z,55.43
2023-02-27T11:34:36.143Z,54.15
2023-02-27T11:35:36.146Z,52.97
2023-02-27T11:36:36.102Z,50.87
2023-02-27T11:37:36.098Z,49.13
2023-02-27T11:38:36.080Z,49.27
2023-02-27T11:39:36.069Z,51.58
2023-02-27T11:40:36.061Z,53.33
2023-02-27T11:41:36.032Z,53.69
2023-02-27T11:42:36.035Z,54.56
2023-02-27T11:43:36.010Z,51.04
2023-02-27T11:44:50.275Z,51.17
2023-02-27T11:46:04.685Z,50.63
2023-02-27T11:46:46.445Z,53.89
2023-02-27T11:47:36.249Z,49.13
2023-02-27T11:48:36.001Z,48.90
2023-02-27T11:49:35.944Z,48.65
2023-02-27T11:50:35.950Z,47.81
2023-02-27T11:51:35.939Z,49.63
2023-02-27T11:52:35.937Z,47.76
2023-02-27T11:53:35.904Z,46.51
2023-02-27T11:54:35.911Z,50.40
2023-02-27T11:55:35.878Z,46.94
2023-02-27T11:56:36.386Z,46.03
2023-02-27T11:57:35.869Z,46.85
2023-02-27T11:58:35.865Z,49.51
2023-02-27T11:59:35.838Z,50.34
2023-02-27T12:00:35.845Z,52.12
2023-02-27T12:01:35.823Z,53.79
2023-02-27T12:02:38.333Z,53.35
2023-02-27T12:03:35.849Z,55.07
2023-02-27T12:04:35.837Z,55.95
2023-02-27T12:05:35.783Z,56.70
2023-02-27T12:06:35.798Z,58.84
2023-02-27T12:07:35.756Z,59.14
2023-02-27T12:08:35.772Z,57.57
2023-02-27T12:09:35.822Z,54.84
2023-02-27T12:10:35.744Z,55.38
2023-02-27T12:11:35.712Z,57.03
2023-02-27T12:12:35.718Z,57.01
2023-02-27T12:13:35.700Z,55.23
2023-02-27T12:14:35.763Z,54.46
2023-02-27T12:15:35.761Z,54.17
2023-02-27T12:16:36.185Z,54.66
2023-02-27T12:17:35.643Z,52.28
2023-02-27T12:18:35.685Z,52.84
2023-02-27T12:19:35.631Z,50.58
2023-02-27T12:20:35.633Z,51.94
2023-02-27T12:21:35.783Z,52.37
2023-02-27T12:22:35.611Z,53.33
2023-02-27T12:23:35.580Z,54.10
2023-02-27T12:24:35.604Z,54.94
2023-02-27T12:25:35.561Z,54.43
2023-02-27T12:26:35.581Z,54.33
2023-02-27T12:27:35.560Z,55.62
2023-02-27T12:28:35.553Z,57.29
2023-02-27T12:29:35.522Z,57.63
2023-02-27T12:30:35.531Z,58.59
2023-02-27T12:31:35.611Z,59.52
2023-02-27T12:32:35.570Z,59.44
2023-02-27T12:33:35.499Z,60.37
2023-02-27T12:34:35.486Z,58.82
2023-02-27T12:35:35.492Z,58.95
2023-02-27T12:36:35.471Z,60.19
2023-02-27T12:37:35.429Z,61.43
2023-02-27T12:38:35.457Z,61.74
2023-02-27T12:39:35.422Z,60.30
2023-02-27T12:40:35.421Z,61.12
2023-02-27T12:41:35.384Z,61.02
2023-02-27T12:42:35.418Z,59.75
2023-02-27T12:43:35.366Z,60.47
2023-02-27T12:44:35.384Z,59.13
2023-02-27T12:45:35.374Z,59.85
2023-02-27T12:46:35.361Z,60.06
2023-02-27T12:47:35.340Z,58.64
2023-02-27T12:48:35.333Z,58.84
2023-02-27T12:49:35.309Z,61.02
2023-02-27T12:50:35.314Z,59.99
2023-02-27T12:51:35.314Z,58.87
2023-02-27T12:52:35.299Z,58.87
2023-02-27T12:53:35.262Z,59.39